Time;durP1;ratioP1;P1;durP2;ratioP2;P2;SDS_P1;SDS_P2;PMS_P1;PMS_P2;Temp;Humidity;BMP_temperature;BMP_pressure;BME280_temperature;BME280_humidity;BME280_pressure;Samples;Min_cycle;Max_cycle;Signal;HPM_P1;HPM_P2
2023/03/12 00:00:07;;;;;;;6.95;1.80;;;;;;;6.60;47.79;101106.25;4880489;28;123097;-73
2023/03/12 00:02:34;;;;;;;4.00;1.70;;;;;;;6.61;47.95;101102.69;4882565;28;115488;-73
2023/03/12 00:05:02;;;;;;;6.80;2.22;;;;;;;6.63;47.61;101100.91;4891059;28;114392;-74
2023/03/12 00:07:29;;;;;;;3.63;1.73;;;;;;;6.63;47.74;101106.19;4866612;28;124691;-74
2023/03/12 00:09:56;;;;;;;4.13;1.83;;;;;;;6.64;47.99;101102.63;4881002;28;123519;-74
2023/03/12 00:12:23;;;;;;;5.65;1.98;;;;;;;6.65;47.97;101096.47;4889465;28;114394;-74
2023/03/12 00:14:50;;;;;;;5.45;1.88;;;;;;;6.65;47.68;101101.75;4889055;28;113089;-74
2023/03/12 00:17:17;;;;;;;5.40;1.70;;;;;;;6.66;47.64;101098.19;4881457;28;123776;-74
2023/03/12 00:19:45;;;;;;;4.65;2.00;;;;;;;6.67;47.65;101091.16;4887975;28;123964;-73
2023/03/12 00:22:13;;;;;;;3.80;1.90;;;;;;;6.68;47.61;101093.75;4886833;28;114973;-73
2023/03/12 00:24:40;;;;;;;5.30;2.03;;;;;;;6.68;47.94;101093.75;4884658;28;113645;-73
2023/03/12 00:27:07;;;;;;;5.88;1.90;;;;;;;6.69;48.04;101090.22;4877671;28;123293;-73
2023/03/12 00:29:34;;;;;;;5.13;2.00;;;;;;;6.69;47.68;101084.13;4882501;28;124193;-74
2023/03/12 00:32:01;;;;;;;10.43;2.00;;;;;;;6.69;47.94;101084.97;4863822;28;115267;-74
2023/03/12 00:34:28;;;;;;;4.55;1.70;;;;;;;6.70;48.21;101081.41;4880297;28;113449;-74
2023/03/12 00:36:56;;;;;;;5.55;1.85;;;;;;;6.71;47.77;101083.16;4879889;28;124175;-74
2023/03/12 00:39:23;;;;;;;6.60;1.90;;;;;;;6.71;48.07;101067.38;4876832;28;124156;-74
2023/03/12 00:41:50;;;;;;;7.15;1.90;;;;;;;6.72;48.00;101066.44;4886264;28;115146;-74
2023/03/12 00:44:17;;;;;;;4.65;1.70;;;;;;;6.73;47.88;101065.56;4877565;28;112815;-73
2023/03/12 00:46:44;;;;;;;4.20;1.60;;;;;;;6.73;47.72;101055.03;4884526;28;124646;-74
2023/03/12 00:49:12;;;;;;;4.07;1.60;;;;;;;6.73;47.69;101049.75;4878951;28;124085;-74
2023/03/12 00:51:39;;;;;;;4.35;1.40;;;;;;;6.73;47.96;101052.41;4877154;28;114733;-73
2023/03/12 00:54:06;;;;;;;3.42;1.70;;;;;;;6.72;48.22;101042.75;4868461;28;113513;-73
2023/03/12 00:56:33;;;;;;;4.65;1.45;;;;;;;6.72;47.89;101058.56;4876836;28;124358;-74
2023/03/12 00:59:00;;;;;;;4.60;1.70;;;;;;;6.73;48.20;101055.03;4878879;28;124107;-74
2023/03/12 01:01:28;;;;;;;2.40;1.58;;;;;;;6.72;48.06;101055.91;4883790;28;112770;-72
2023/03/12 01:03:57;;;;;;;4.45;1.50;;;;;;;6.74;48.23;101056.78;4884093;28;113582;-73
2023/03/12 01:06:24;;;;;;;5.93;1.42;;;;;;;6.73;48.01;101048.91;4888947;28;124077;-74
2023/03/12 01:08:51;;;;;;;5.78;1.65;;;;;;;6.73;48.25;101043.66;4888407;28;123555;-74
2023/03/12 01:11:21;;;;;;;3.28;1.50;;;;;;;6.71;47.70;101046.31;4877324;28;113826;-73
2023/03/12 01:13:48;;;;;;;3.50;1.75;;;;;;;6.71;48.07;101046.31;4874931;28;114606;-74
2023/03/12 01:16:16;;;;;;;5.63;2.10;;;;;;;6.71;48.06;101041.03;4884267;28;122885;-74
2023/03/12 01:18:43;;;;;;;5.40;1.65;;;;;;;6.70;48.26;101039.31;4883693;28;124456;-73
2023/03/12 01:21:12;;;;;;;5.28;1.60;;;;;;;6.71;47.80;101045.47;4874921;28;114169;-74
2023/03/12 01:23:39;;;;;;;3.63;1.63;;;;;;;6.72;48.06;101048.03;4875584;28;114064;-74
2023/03/12 01:26:06;;;;;;;5.03;1.70;;;;;;;6.71;48.01;101046.31;4876193;28;123239;-74
2023/03/12 01:28:33;;;;;;;4.68;1.65;;;;;;;6.71;48.10;101030.53;4882101;28;123979;-73
2023/03/12 01:31:13;;;;;;;6.75;1.60;;;;;;;6.71;48.22;101020.00;4863526;28;114446;-74
2023/03/12 01:33:40;;;;;;;5.28;1.67;;;;;;;6.71;48.19;101014.72;4881520;28;114606;-73
2023/03/12 01:36:20;;;;;;;5.30;1.85;;;;;;;6.71;48.22;101017.34;4880705;28;123258;-74
2023/03/12 01:38:55;;;;;;;3.05;1.75;;;;;;;6.72;48.08;101011.16;4881455;28;123705;-74
2023/03/12 01:41:25;;;;;;;3.37;1.60;;;;;;;6.71;48.00;101004.19;4883333;28;114746;-73
2023/03/12 01:43:52;;;;;;;6.75;1.92;;;;;;;6.72;48.28;101015.59;4861156;28;113159;-73
2023/03/12 01:46:30;;;;;;;3.90;1.77;;;;;;;6.72;48.17;101020.84;4881170;28;123291;-74
2023/03/12 01:49:18;;;;;;;4.05;1.67;;;;;;;6.71;48.18;101014.72;4867888;28;124277;-74
2023/03/12 01:51:52;;;;;;;5.88;1.65;;;;;;;6.71;48.06;101014.72;4879358;28;113578;-73
2023/03/12 01:54:23;;;;;;;4.43;1.40;;;;;;;6.72;48.12;101005.91;4873794;28;113632;-74
2023/03/12 01:56:51;;;;;;;4.30;2.03;;;;;;;6.73;48.01;101005.00;4883766;28;123252;-73
2023/03/12 01:59:44;;;;;;;5.28;1.95;;;;;;;6.71;48.14;100998.94;4877740;28;123493;-74
2023/03/12 02:02:14;;;;;;;3.90;1.50;;;;;;;6.73;48.33;100991.84;4877028;28;114904;-72
2023/03/12 02:04:43;;;;;;;3.97;1.55;;;;;;;6.72;48.28;100984.84;4883374;28;113736;-73
2023/03/12 02:07:13;;;;;;;3.83;1.63;;;;;;;6.72;48.02;100984.84;4881341;28;123660;-73
2023/03/12 02:09:47;;;;;;;4.55;1.77;;;;;;;6.72;48.26;100979.59;4884471;28;124992;-73
2023/03/12 02:12:16;;;;;;;5.18;1.80;;;;;;;6.71;48.25;100972.63;4882535;28;113607;-73
2023/03/12 02:14:43;;;;;;;4.78;1.90;;;;;;;6.71;48.23;100977.88;4880451;28;112994;-73
2023/03/12 02:17:11;;;;;;;6.18;1.98;;;;;;;6.70;48.09;100981.41;4878197;28;123094;-73
2023/03/12 02:20:11;;;;;;;5.38;2.00;;;;;;;6.70;48.15;100986.66;4877106;28;123556;-73
2023/03/12 02:22:41;;;;;;;4.13;1.92;;;;;;;6.71;47.94;100983.13;4885446;28;115058;-73
2023/03/12 02:25:29;;;;;;;6.10;2.03;;;;;;;6.72;48.15;100974.31;4885004;28;114384;-74
2023/03/12 02:27:59;;;;;;;4.95;1.83;;;;;;;6.72;48.25;100974.31;4869547;28;123847;-73
2023/03/12 02:30:29;;;;;;;4.10;2.03;;;;;;;6.72;48.38;100973.47;4877859;28;122451;-74
2023/03/12 02:33:04;;;;;;;6.60;2.25;;;;;;;6.74;48.27;100972.53;4873704;28;115094;-72
2023/03/12 02:35:31;;;;;;;3.73;2.07;;;;;;;6.74;48.22;100964.66;4858666;28;112164;-73
2023/03/12 02:37:58;;;;;;;4.88;2.00;;;;;;;6.74;48.07;100962.00;4885816;28;124410;-74
2023/03/12 02:40:40;;;;;;;3.25;1.90;;;;;;;6.74;48.16;100972.53;4886308;28;123767;-73
2023/03/12 02:43:09;;;;;;;4.50;2.00;;;;;;;6.74;48.42;100967.28;4874700;28;115183;-74
2023/03/12 02:45:37;;;;;;;4.05;1.90;;;;;;;6.74;48.13;100959.38;4878263;28;113176;-74
2023/03/12 02:48:07;;;;;;;6.57;2.25;;;;;;;6.74;48.32;100951.50;4884014;28;124068;-73
2023/03/12 02:50:34;;;;;;;3.63;1.83;;;;;;;6.74;48.27;100951.50;4879296;28;124150;-74
2023/03/12 02:53:03;;;;;;;5.28;1.80;;;;;;;6.72;48.53;100942.75;4875952;28;113899;-73
2023/03/12 02:55:30;;;;;;;5.28;2.17;;;;;;;6.72;48.41;100942.75;4870544;28;113029;-73
2023/03/12 02:57:57;;;;;;;4.28;1.80;;;;;;;6.73;48.40;100936.59;4874886;28;124221;-74
2023/03/12 03:00:25;;;;;;;5.45;2.08;;;;;;;6.73;48.58;100931.31;4867179;28;123995;-73
2023/03/12 03:02:53;;;;;;;4.90;2.15;;;;;;;6.74;48.32;100935.69;4878444;28;114394;-74
2023/03/12 03:05:20;;;;;;;5.07;1.95;;;;;;;6.73;48.63;100939.22;4873159;28;113327;-74
2023/03/12 03:07:47;;;;;;;4.53;2.20;;;;;;;6.73;48.42;100939.22;4875804;28;123281;-74
2023/03/12 03:10:16;;;;;;;4.55;2.20;;;;;;;6.74;48.36;100940.97;4880552;28;123275;-74
2023/03/12 03:12:43;;;;;;;5.80;1.95;;;;;;;6.74;48.40;100935.69;4883272;28;115223;-73
2023/03/12 03:15:11;;;;;;;3.72;1.92;;;;;;;6.73;48.39;100939.22;4876906;28;115362;-74
2023/03/12 03:17:39;;;;;;;4.35;2.17;;;;;;;6.73;48.36;100939.22;4884839;28;124156;-74
2023/03/12 03:20:10;;;;;;;5.90;1.98;;;;;;;6.74;48.29;100935.69;4863180;28;124175;-74
2023/03/12 03:22:37;;;;;;;5.15;2.20;;;;;;;6.74;48.73;100935.69;4882242;28;114387;-74
2023/03/12 03:25:07;;;;;;;8.48;2.35;;;;;;;6.74;48.22;100935.69;4876046;28;114212;-72
2023/03/12 03:27:34;;;;;;;5.00;2.03;;;;;;;6.74;48.73;100935.69;4881908;28;122803;-73
2023/03/12 03:30:02;;;;;;;4.25;2.15;;;;;;;6.74;48.34;100938.31;4876093;28;123533;-74
2023/03/12 03:32:32;;;;;;;3.67;1.92;;;;;;;6.75;48.81;100942.66;4885154;28;113375;-74
2023/03/12 03:34:59;;;;;;;4.47;2.10;;;;;;;6.76;48.86;100944.41;4877147;28;113763;-74
2023/03/12 03:37:27;;;;;;;3.60;2.10;;;;;;;6.77;48.83;100940.84;4865583;28;123184;-74
2023/03/12 03:39:54;;;;;;;4.70;2.20;;;;;;;6.76;48.81;100925.97;4882695;28;122955;-74
2023/03/12 03:42:21;;;;;;;5.10;1.83;;;;;;;6.75;48.52;100924.25;4882900;28;113641;-74
2023/03/12 03:44:48;;;;;;;5.07;2.10;;;;;;;6.74;48.86;100919.91;4882072;28;114034;-74
2023/03/12 03:47:15;;;;;;;6.03;2.50;;;;;;;6.74;48.53;100919.91;4888582;28;122926;-73
2023/03/12 03:49:42;;;;;;;5.32;2.10;;;;;;;6.74;49.02;100909.38;4887318;28;123086;-73
2023/03/12 03:52:10;;;;;;;5.07;2.28;;;;;;;6.75;48.93;100916.34;4887129;28;112262;-74
2023/03/12 03:54:38;;;;;;;4.30;2.25;;;;;;;6.76;48.74;100911.94;4882175;28;115033;-74
2023/03/12 03:57:06;;;;;;;6.18;2.00;;;;;;;6.78;48.98;100905.75;4875298;28;123465;-73
2023/03/12 03:59:34;;;;;;;4.25;2.38;;;;;;;6.81;48.63;100910.91;4873102;28;122689;-74
2023/03/12 04:02:01;;;;;;;6.13;2.10;;;;;;;6.82;48.52;100902.09;4890164;28;115139;-73
2023/03/12 04:04:30;;;;;;;6.68;2.25;;;;;;;6.82;49.00;100902.09;4885060;28;114165;-73
2023/03/12 04:06:58;;;;;;;4.35;2.30;;;;;;;6.83;48.78;100903.81;4892133;28;123395;-74
2023/03/12 04:09:25;;;;;;;5.40;2.50;;;;;;;6.85;48.68;100897.66;4889562;28;122007;-72
2023/03/12 04:11:52;;;;;;;7.03;2.50;;;;;;;6.86;48.86;100891.50;4882178;28;113750;-73
2023/03/12 04:14:20;;;;;;;5.15;2.20;;;;;;;6.86;49.18;100888.88;4888647;28;113407;-73
2023/03/12 04:16:47;;;;;;;5.85;2.28;;;;;;;6.87;48.83;100882.69;4876881;28;123450;-73
2023/03/12 04:19:14;;;;;;;4.32;2.40;;;;;;;6.87;49.23;100877.41;4870701;28;124243;-72
2023/03/12 04:21:41;;;;;;;6.40;2.00;;;;;;;6.89;48.92;100875.59;4887196;28;113737;-74
2023/03/12 04:24:14;;;;;;;4.70;2.30;;;;;;;6.89;48.79;100878.22;4883201;28;112350;-74
2023/03/12 04:26:42;;;;;;;4.30;1.92;;;;;;;6.89;49.36;100870.34;4886321;28;124672;-73
2023/03/12 04:29:10;;;;;;;4.45;1.90;;;;;;;6.89;48.76;100871.19;4883465;28;123466;-72
2023/03/12 04:31:37;;;;;;;5.60;2.20;;;;;;;6.90;48.85;100861.53;4884863;28;114511;-73
2023/03/12 04:34:04;;;;;;;4.38;2.40;;;;;;;6.90;49.01;100858.91;4885791;28;113333;-74
2023/03/12 04:36:31;;;;;;;5.30;2.42;;;;;;;6.91;49.05;100852.72;4880377;28;123935;-73
2023/03/12 04:38:59;;;;;;;5.55;2.33;;;;;;;6.91;49.35;100857.97;4883849;28;124191;-73
2023/03/12 04:41:32;;;;;;;7.28;2.75;;;;;;;6.91;49.10;100850.09;4864954;28;114345;-74
2023/03/12 04:44:07;;;;;;;6.95;2.33;;;;;;;6.90;49.24;100835.22;4866984;28;113208;-74
2023/03/12 04:46:36;;;;;;;6.25;2.65;;;;;;;6.89;49.30;100822.94;4888942;28;123145;-74
2023/03/12 04:49:04;;;;;;;6.15;2.30;;;;;;;6.90;49.29;100819.41;4887757;28;125623;-73
2023/03/12 04:51:33;;;;;;;6.68;2.53;;;;;;;6.88;49.23;100815.97;4880220;28;115528;-73
2023/03/12 04:54:02;;;;;;;4.95;2.28;;;;;;;6.87;49.32;100814.22;4883622;28;114515;-74
2023/03/12 04:56:30;;;;;;;4.65;2.50;;;;;;;6.85;49.15;100808.16;4873990;28;123254;-73
2023/03/12 04:58:57;;;;;;;3.58;2.08;;;;;;;6.83;49.11;100809.06;4888442;28;124403;-73
2023/03/12 05:01:32;;;;;;;5.60;2.10;;;;;;;6.81;49.56;100816.13;4884247;28;114416;-74
2023/03/12 05:04:02;;;;;;;4.60;2.40;;;;;;;6.80;49.60;100819.69;4884775;28;113508;-74
2023/03/12 05:06:30;;;;;;;4.72;2.22;;;;;;;6.80;49.16;100817.06;4884893;28;124900;-73
2023/03/12 05:08:57;;;;;;;4.72;2.58;;;;;;;6.79;49.39;100811.84;4889459;28;123694;-73
2023/03/12 05:11:24;;;;;;;5.88;2.40;;;;;;;6.78;49.60;100800.44;4887051;28;113472;-73
2023/03/12 05:13:51;;;;;;;5.88;2.55;;;;;;;6.79;49.45;100791.63;4885857;28;112160;-74
2023/03/12 05:16:19;;;;;;;7.03;2.38;;;;;;;6.77;49.90;100793.44;4886002;28;123415;-74
2023/03/12 05:18:47;;;;;;;6.63;2.40;;;;;;;6.75;49.62;100800.53;4881184;28;122914;-74
2023/03/12 05:21:21;;;;;;;3.63;1.98;;;;;;;6.76;49.62;100791.75;4883735;28;113811;-74
2023/03/12 05:23:51;;;;;;;6.00;2.60;;;;;;;6.77;49.77;100788.19;4886114;28;113052;-73
2023/03/12 05:26:23;;;;;;;4.80;2.22;;;;;;;6.78;49.68;100774.13;4887990;28;125031;-73
2023/03/12 05:28:54;;;;;;;4.03;2.05;;;;;;;6.79;49.83;100761.81;4881663;28;124713;-74
2023/03/12 05:31:23;;;;;;;3.60;2.38;;;;;;;6.80;49.88;100764.41;4869122;28;113407;-74
2023/03/12 05:33:50;;;;;;;4.03;2.20;;;;;;;6.79;49.66;100767.94;4885609;28;114661;-73
2023/03/12 05:36:20;;;;;;;6.07;2.35;;;;;;;6.79;49.98;100770.56;4882673;28;123439;-74
2023/03/12 05:38:48;;;;;;;5.35;1.98;;;;;;;6.81;49.89;100763.50;4884556;28;122969;-73
2023/03/12 05:41:23;;;;;;;6.07;2.28;;;;;;;6.83;49.83;100766.06;4889726;28;114658;-73
2023/03/12 05:43:53;;;;;;;;;;;;;;;6.83;49.74;100766.06;4871241;28;112754;-73
2023/03/12 05:46:20;;;;;;;5.85;2.10;;;;;;;6.86;50.11;100765.13;4871360;28;124190;-73
2023/03/12 05:48:47;;;;;;;6.15;2.17;;;;;;;6.85;50.11;100769.53;4884323;28;123310;-73
2023/03/12 05:51:15;;;;;;;4.82;2.00;;;;;;;6.84;49.86;100762.56;4882633;28;114001;-74
2023/03/12 05:53:43;;;;;;;16.27;2.50;;;;;;;6.86;49.88;100775.66;4869421;28;113193;-74
2023/03/12 05:56:13;;;;;;;5.13;2.60;;;;;;;6.87;50.31;100766.84;4879265;28;124116;-73
2023/03/12 05:58:41;;;;;;;4.57;1.95;;;;;;;6.89;49.96;100749.22;4878455;28;123123;-73
2023/03/12 06:01:14;;;;;;;7.82;2.10;;;;;;;6.90;50.36;100745.72;4885334;28;113891;-73
2023/03/12 06:03:43;;;;;;;5.43;1.83;;;;;;;6.92;50.48;100744.72;4880976;28;112324;-74
2023/03/12 06:06:10;;;;;;;6.65;2.00;;;;;;;6.95;50.17;100751.66;4863609;28;123655;-73
2023/03/12 06:08:39;;;;;;;4.57;2.05;;;;;;;6.96;50.51;100758.66;4871359;28;123476;-74
2023/03/12 06:11:07;;;;;;;6.75;2.58;;;;;;;6.97;50.25;100760.41;4883965;28;113723;-74
2023/03/12 06:13:34;;;;;;;6.03;2.33;;;;;;;6.99;50.67;100762.06;4880293;28;113819;-74
2023/03/12 06:16:08;;;;;;;4.68;2.17;;;;;;;7.02;50.44;100761.09;4886591;28;125049;-74
2023/03/12 06:18:36;;;;;;;6.70;2.00;;;;;;;7.04;50.54;100759.28;4905333;28;123606;-73
2023/03/12 06:21:24;;;;;;;5.40;2.22;;;;;;;7.05;50.59;100761.00;4897460;28;113131;-74
2023/03/12 06:23:53;;;;;;;5.53;1.80;;;;;;;7.07;50.76;100756.56;4887822;28;113133;-74
2023/03/12 06:26:26;;;;;;;8.77;2.53;;;;;;;7.08;50.49;100739.81;4881770;28;124003;-74
2023/03/12 06:28:54;;;;;;;6.85;2.33;;;;;;;7.09;50.76;100746.84;4888744;28;124218;-73
2023/03/12 06:31:22;;;;;;;9.55;2.10;;;;;;;7.10;50.87;100748.56;4887376;28;115329;-74
2023/03/12 06:33:50;;;;;;;5.53;2.20;;;;;;;7.12;50.70;100757.28;4885766;28;114987;-74
2023/03/12 06:36:17;;;;;;;6.03;2.00;;;;;;;7.16;50.82;100758.03;4888395;28;123824;-74
2023/03/12 06:38:44;;;;;;;7.75;2.30;;;;;;;7.16;50.53;100758.91;4881324;28;123762;-74
2023/03/12 06:41:14;;;;;;;3.17;1.95;;;;;;;7.18;51.14;100757.06;4880687;28;114784;-74
2023/03/12 06:43:42;;;;;;;5.90;2.42;;;;;;;7.22;50.81;100763.09;4889891;28;113931;-74
2023/03/12 06:46:15;;;;;;;5.82;2.22;;;;;;;7.22;50.95;100758.69;4891748;28;123765;-73
2023/03/12 06:48:45;;;;;;;9.45;2.10;;;;;;;7.26;51.27;100758.59;4882329;28;124445;-74
2023/03/12 06:51:14;;;;;;;5.32;2.00;;;;;;;7.26;50.96;100750.69;4891109;28;114989;-74
2023/03/12 06:53:41;;;;;;;4.60;2.30;;;;;;;7.26;51.35;100742.78;4874182;28;113741;-74
2023/03/12 06:56:10;;;;;;;5.47;2.20;;;;;;;7.28;51.27;100740.97;4870866;28;124433;-74
2023/03/12 06:58:37;;;;;;;6.68;2.38;;;;;;;7.27;51.03;100739.22;4888141;28;124383;-74
2023/03/12 07:01:04;;;;;;;5.80;2.80;;;;;;;7.27;51.32;100744.50;4881894;28;115283;-74
2023/03/12 07:03:32;;;;;;;5.53;2.40;;;;;;;7.26;51.44;100737.53;4877596;28;113918;-74
2023/03/12 07:05:59;;;;;;;8.82;2.20;;;;;;;7.27;51.58;100739.22;4878020;28;124274;-74
2023/03/12 07:08:30;;;;;;;4.50;2.25;;;;;;;7.27;51.44;100733.97;4879425;28;123528;-74
2023/03/12 07:10:59;;;;;;;5.38;2.80;;;;;;;7.25;51.61;100727.88;4877283;28;114576;-75
2023/03/12 07:13:28;;;;;;;4.68;2.42;;;;;;;7.27;52.00;100723.44;4871100;28;113820;-75
2023/03/12 07:15:56;;;;;;;9.43;2.40;;;;;;;7.28;51.93;100719.91;4877760;28;124141;-75
2023/03/12 07:18:24;;;;;;;4.95;2.30;;;;;;;7.28;51.73;100722.53;4874608;28;124638;-75
2023/03/12 07:20:51;;;;;;;6.68;2.53;;;;;;;7.28;52.27;100710.22;4889813;28;116127;-74
2023/03/12 07:23:19;;;;;;;4.55;2.38;;;;;;;7.30;52.40;100718.91;4890752;28;113995;-75
2023/03/12 07:25:46;;;;;;;4.45;2.00;;;;;;;7.33;52.35;100723.25;4882919;28;124193;-75
2023/03/12 07:28:14;;;;;;;5.95;2.45;;;;;;;7.34;52.55;100714.41;4887447;28;125278;-75
2023/03/12 07:30:42;;;;;;;6.78;2.50;;;;;;;7.34;52.74;100717.03;4889907;28;113514;-75
2023/03/12 07:33:11;;;;;;;4.50;2.35;;;;;;;7.37;52.85;100724.84;4885041;28;113377;-74
2023/03/12 07:35:39;;;;;;;5.82;2.53;;;;;;;7.37;52.95;100714.31;4891274;28;125328;-75
2023/03/12 07:38:07;;;;;;;5.65;2.53;;;;;;;7.39;52.95;100723.03;4890079;28;124189;-75
2023/03/12 07:40:35;;;;;;;5.18;2.35;;;;;;;7.40;53.13;100719.47;4884826;28;114101;-75
2023/03/12 07:43:05;;;;;;;7.93;2.58;;;;;;;7.42;53.15;100712.38;4892175;28;114641;-75
2023/03/12 07:45:34;;;;;;;5.53;2.72;;;;;;;7.44;53.08;100715.84;4866768;28;123507;-74
2023/03/12 07:48:02;;;;;;;6.65;2.70;;;;;;;7.44;53.16;100715.84;4882885;28;124373;-75
2023/03/12 07:50:29;;;;;;;5.05;2.40;;;;;;;7.46;53.12;100714.00;4877718;28;113614;-75
2023/03/12 07:52:57;;;;;;;5.38;2.45;;;;;;;7.50;53.17;100720.88;4875653;28;113730;-75
2023/03/12 07:55:24;;;;;;;5.32;2.35;;;;;;;7.52;53.25;100718.22;4891030;28;123439;-75
2023/03/12 07:57:52;;;;;;;6.57;2.92;;;;;;;7.53;53.43;100718.13;4890575;28;123872;-75
2023/03/12 08:00:19;;;;;;;5.20;2.47;;;;;;;7.55;53.86;100708.44;4875259;28;114467;-75
2023/03/12 08:02:47;;;;;;;5.75;2.58;;;;;;;7.56;53.65;100710.13;4885680;28;114056;-75
2023/03/12 08:05:14;;;;;;;6.13;2.53;;;;;;;7.58;53.72;100713.56;4886196;28;122791;-75
2023/03/12 08:07:41;;;;;;;4.50;2.65;;;;;;;7.59;53.81;100712.66;4889567;28;122870;-75
2023/03/12 08:10:09;;;;;;;7.72;2.67;;;;;;;7.63;53.82;100709.91;4897259;28;114414;-75
2023/03/12 08:12:37;;;;;;;6.72;2.78;;;;;;;7.65;54.11;100713.34;4879239;28;114363;-75
2023/03/12 08:15:05;;;;;;;4.25;2.33;;;;;;;7.67;54.04;100706.28;4894570;28;123769;-75
2023/03/12 08:17:32;;;;;;;5.63;3.00;;;;;;;7.70;54.28;100711.41;4892612;28;123583;-75
2023/03/12 08:19:59;;;;;;;7.13;3.03;;;;;;;7.73;54.24;100712.19;4892841;28;114085;-76
2023/03/12 08:22:26;;;;;;;5.65;3.22;;;;;;;7.75;54.74;100715.63;4881028;28;113705;-75
2023/03/12 08:24:53;;;;;;;6.97;3.20;;;;;;;7.81;54.48;100714.53;4884513;28;124512;-76
2023/03/12 08:27:20;;;;;;;6.30;2.78;;;;;;;7.85;54.56;100705.59;4876512;28;123855;-75
2023/03/12 08:29:48;;;;;;;6.95;3.00;;;;;;;7.88;54.60;100710.78;4876992;28;113418;-75
2023/03/12 08:32:15;;;;;;;5.45;2.78;;;;;;;7.92;54.96;100712.38;4888306;28;113801;-74
2023/03/12 08:34:42;;;;;;;5.10;2.95;;;;;;;7.95;54.89;100707.00;4891366;28;123824;-74
2023/03/12 08:37:09;;;;;;;5.50;2.55;;;;;;;7.99;54.92;100705.97;4887470;28;123879;-75
2023/03/12 08:39:36;;;;;;;4.70;2.70;;;;;;;8.03;55.07;100709.34;4871840;28;114078;-75
2023/03/12 08:42:04;;;;;;;4.38;2.65;;;;;;;8.09;55.06;100697.72;4882740;28;114015;-75
2023/03/12 08:44:31;;;;;;;8.15;3.00;;;;;;;8.14;55.26;100695.78;4880101;28;124016;-75
2023/03/12 08:46:58;;;;;;;5.97;3.20;;;;;;;8.17;55.29;100701.81;4884441;28;123692;-75
2023/03/12 08:49:25;;;;;;;6.55;3.28;;;;;;;8.20;55.22;100706.09;4891705;28;114643;-75
2023/03/12 08:51:52;;;;;;;6.53;3.20;;;;;;;8.25;55.47;100704.16;4892825;28;113758;-74
2023/03/12 08:54:20;;;;;;;4.30;2.90;;;;;;;8.29;55.38;100711.03;4891899;28;124068;-74
2023/03/12 08:56:51;;;;;;;7.00;3.15;;;;;;;8.33;55.79;100717.91;4887295;28;123009;-75
2023/03/12 08:59:19;;;;;;;4.63;3.05;;;;;;;8.35;55.60;100710.78;4890633;28;115036;-75
2023/03/12 09:01:46;;;;;;;7.00;3.40;;;;;;;8.39;55.60;100720.31;4887713;28;115645;-75
2023/03/12 09:04:15;;;;;;;3.58;2.83;;;;;;;8.43;55.41;100723.72;4889577;28;124045;-75
2023/03/12 09:06:42;;;;;;;7.93;3.53;;;;;;;8.47;55.89;100724.47;4885808;28;122989;-75
2023/03/12 09:09:09;;;;;;;5.60;3.30;;;;;;;8.51;56.02;100726.06;4888129;28;114018;-75
2023/03/12 09:11:38;;;;;;;6.07;3.60;;;;;;;8.52;55.93;100727.81;4881309;28;113341;-75
2023/03/12 09:14:06;;;;;;;7.43;3.80;;;;;;;8.56;55.83;100726.75;4879167;28;123068;-75
2023/03/12 09:16:53;;;;;;;6.43;3.58;;;;;;;8.59;55.86;100729.28;4869538;28;123816;-75
2023/03/12 09:19:20;;;;;;;5.32;3.22;;;;;;;8.62;56.40;100729.16;4873809;28;113158;-75
2023/03/12 09:21:47;;;;;;;7.78;3.70;;;;;;;8.67;56.17;100727.19;4873341;28;113306;-75
2023/03/12 09:24:14;;;;;;;5.97;3.88;;;;;;;8.73;56.56;100729.59;4876413;28;123053;-75
2023/03/12 09:26:41;;;;;;;8.70;3.85;;;;;;;8.79;56.52;100725.84;4883017;28;122756;-73
2023/03/12 09:29:08;;;;;;;8.10;3.95;;;;;;;8.84;56.59;100723.03;4875552;28;114667;-75
2023/03/12 09:31:36;;;;;;;7.03;4.18;;;;;;;8.89;56.30;100721.06;4883813;28;113956;-74
2023/03/12 09:34:03;;;;;;;7.28;4.25;;;;;;;8.96;56.40;100722.53;4885095;28;122941;-76
2023/03/12 09:36:31;;;;;;;7.35;4.53;;;;;;;9.01;56.66;100720.56;4877712;28;123208;-75
2023/03/12 09:38:59;;;;;;;10.18;4.82;;;;;;;9.06;56.74;100713.34;4887923;28;113878;-75
2023/03/12 09:41:34;;;;;;;8.98;4.60;;;;;;;9.13;57.24;100709.50;4879481;28;113262;-74
2023/03/12 09:44:29;;;;;;;8.93;4.78;;;;;;;9.20;56.99;100715.41;4876237;28;123940;-76
2023/03/12 09:47:08;;;;;;;12.40;5.50;;;;;;;9.29;56.96;100719.44;4866273;28;122547;-75
2023/03/12 09:49:45;;;;;;;8.60;4.93;;;;;;;9.34;57.00;100717.44;4869673;28;116106;-74
2023/03/12 09:52:23;;;;;;;8.50;5.30;;;;;;;9.41;57.37;100724.22;4877348;28;114926;-75
2023/03/12 09:55:20;;;;;;;11.07;5.60;;;;;;;9.50;57.39;100731.75;4875882;28;123560;-75
2023/03/12 09:57:50;;;;;;;10.43;5.80;;;;;;;9.58;57.27;100725.28;4882918;28;123404;-75
2023/03/12 10:00:22;;;;;;;12.57;5.85;;;;;;;9.66;57.59;100723.16;4888695;28;113326;-75
2023/03/12 10:03:27;;;;;;;14.48;6.70;;;;;;;9.75;57.43;100738.63;4877099;28;113860;-75
2023/03/12 10:06:03;;;;;;;11.82;6.32;;;;;;;9.83;57.71;100730.38;4877716;28;123813;-75
2023/03/12 10:08:49;;;;;;;11.55;6.53;;;;;;;9.91;57.67;100737.03;4888215;28;123119;-75
2023/03/12 10:11:35;;;;;;;11.45;6.32;;;;;;;10.02;57.87;100735.69;4882823;28;114035;-75
2023/03/12 10:14:20;;;;;;;14.43;6.50;;;;;;;10.12;57.88;100737.03;4891878;28;114392;-76
2023/03/12 10:17:05;;;;;;;12.45;7.18;;;;;;;10.22;57.90;100735.66;4880142;28;124403;-75
2023/03/12 10:19:58;;;;;;;14.45;7.00;;;;;;;10.32;57.82;100736.13;4889062;28;124037;-76
2023/03/12 10:22:57;;;;;;;14.02;7.50;;;;;;;10.42;58.11;100739.25;4889586;28;114330;-76
2023/03/12 10:25:44;;;;;;;18.60;7.82;;;;;;;10.52;58.09;100735.22;4889237;28;114271;-75
2023/03/12 10:28:17;;;;;;;14.52;7.72;;;;;;;10.63;58.06;100737.38;4889171;28;123997;-76
2023/03/12 10:30:52;;;;;;;16.85;8.20;;;;;;;10.71;58.24;100736.06;4890540;28;123986;-74
2023/03/12 10:33:23;;;;;;;14.20;7.32;;;;;;;10.82;58.32;100732.06;4869877;28;113753;-76
2023/03/12 10:35:51;;;;;;;15.82;8.02;;;;;;;10.94;58.42;100728.81;4885171;28;114092;-76
2023/03/12 10:38:28;;;;;;;15.50;8.02;;;;;;;11.05;58.66;100723.84;4885601;28;124564;-76
2023/03/12 10:40:55;;;;;;;16.08;8.07;;;;;;;11.16;58.34;100727.78;4886450;28;123618;-75
2023/03/12 10:43:22;;;;;;;18.75;8.80;;;;;;;11.28;58.57;100740.41;4881826;28;116063;-76
2023/03/12 10:46:04;;;;;;;16.48;8.40;;;;;;;11.36;58.62;100727.66;4879118;28;114037;-75
2023/03/12 10:48:31;;;;;;;15.93;8.45;;;;;;;11.48;58.64;100731.47;4881627;28;124136;-75
2023/03/12 10:51:03;;;;;;;15.93;8.50;;;;;;;11.58;58.92;100726.53;4885513;28;122279;-76
2023/03/12 10:53:34;;;;;;;14.00;7.95;;;;;;;11.68;59.09;100727.81;4880499;28;114509;-76
2023/03/12 10:56:12;;;;;;;19.70;7.95;;;;;;;11.78;59.02;100723.72;4892093;28;114867;-76
2023/03/12 10:58:48;;;;;;;18.35;8.35;;;;;;;11.87;58.93;100717.09;4900578;28;123563;-75
2023/03/12 11:01:21;;;;;;;16.33;7.97;;;;;;;11.96;59.12;100710.44;4910839;28;123559;-75
2023/03/12 11:03:50;;;;;;;17.08;8.55;;;;;;;12.06;59.19;100717.00;4902143;28;114839;-77
2023/03/12 11:06:35;;;;;;;16.55;8.38;;;;;;;12.15;58.82;100721.81;4881779;28;113896;-75
2023/03/12 11:09:18;;;;;;;20.48;9.07;;;;;;;12.24;59.06;100721.34;4874018;28;124249;-76
2023/03/12 11:11:47;;;;;;;17.80;8.75;;;;;;;12.31;58.76;100710.38;4877942;28;123742;-76
2023/03/12 11:14:19;;;;;;;17.48;8.45;;;;;;;12.37;58.98;100715.34;4890736;28;114070;-76
2023/03/12 11:16:47;;;;;;;16.00;8.38;;;;;;;12.43;59.00;100720.31;4882733;28;114574;-76
2023/03/12 11:19:26;;;;;;;16.15;7.85;;;;;;;12.49;58.98;100714.69;4885246;28;123512;-76
2023/03/12 11:21:56;;;;;;;16.67;7.97;;;;;;;12.56;58.94;100723.16;4887510;28;124195;-76
2023/03/12 11:24:23;;;;;;;18.38;8.32;;;;;;;12.62;58.92;100736.97;4886820;28;114513;-76
2023/03/12 11:27:12;;;;;;;17.25;7.82;;;;;;;12.66;58.93;100724.38;4874152;28;112375;-76
2023/03/12 11:29:45;;;;;;;15.00;7.28;;;;;;;12.73;59.03;100723.06;4898659;28;122974;-76
2023/03/12 11:32:37;;;;;;;14.82;7.30;;;;;;;12.79;59.09;100733.38;4886833;28;123939;-76
2023/03/12 11:35:13;;;;;;;18.63;7.78;;;;;;;12.85;58.95;100721.53;4880157;28;114612;-75
2023/03/12 11:38:14;;;;;;;13.18;6.82;;;;;;;12.91;59.25;100737.13;4884999;28;115097;-76